Time;durP1;ratioP1;P1;durP2;ratioP2;P2;SDS_P1;SDS_P2;PMS_P1;PMS_P2;Temp;Humidity;BMP_temperature;BMP_pressure;BME280_temperature;BME280_humidity;BME280_pressure;Samples;Min_cycle;Max_cycle;Signal;HPM_P1;HPM_P2
2022/08/16 00:00:26;;;;;;;21.45;17.33;;;;;;;28.66;50.28;100614.47;5034144;28;20049;-74
2022/08/16 00:02:53;;;;;;;20.55;16.60;;;;;;;28.77;49.82;100621.09;5032337;28;20381;-74
2022/08/16 00:05:21;;;;;;;22.67;16.98;;;;;;;28.76;50.09;100616.69;5031510;28;20033;-74
2022/08/16 00:07:46;;;;;;;18.85;16.10;;;;;;;28.66;49.60;100618.00;5034128;28;20072;-74
2022/08/16 00:10:13;;;;;;;26.63;16.70;;;;;;;28.67;50.26;100616.88;5034055;28;20465;-73
2022/08/16 00:12:40;;;;;;;22.90;16.17;;;;;;;28.67;49.91;100619.63;5034330;28;20386;-73
2022/08/16 00:15:12;;;;;;;21.92;15.95;;;;;;;28.69;49.75;100614.56;5034006;28;20374;-73
2022/08/16 00:17:38;;;;;;;19.92;15.23;;;;;;;28.63;49.49;100614.00;5012898;28;20053;-73
2022/08/16 00:20:07;;;;;;;19.00;15.40;;;;;;;28.47;50.91;100604.81;5015727;28;20037;-74
2022/08/16 00:22:33;;;;;;;18.45;14.63;;;;;;;28.62;49.53;100606.03;5034296;28;20049;-73
2022/08/16 00:24:59;;;;;;;18.65;14.38;;;;;;;28.63;49.73;100607.66;5034652;28;20097;-76
2022/08/16 00:27:24;;;;;;;18.25;14.48;;;;;;;28.60;49.84;100608.34;5034128;28;20040;-74
2022/08/16 00:29:50;;;;;;;16.88;13.52;;;;;;;28.50;48.63;100597.78;5032357;28;20045;-75
2022/08/16 00:32:15;;;;;;;16.33;12.95;;;;;;;28.54;48.36;100604.19;5034123;28;20486;-73
2022/08/16 00:34:41;;;;;;;15.20;13.27;;;;;;;28.49;49.22;100602.50;5034004;28;20087;-74
2022/08/16 00:37:07;;;;;;;20.35;14.55;;;;;;;28.47;49.00;100599.28;5034446;28;20037;-73
2022/08/16 00:39:32;;;;;;;20.67;13.80;;;;;;;28.45;49.47;100598.81;5034157;28;20053;-73
2022/08/16 00:41:58;;;;;;;19.20;13.55;;;;;;;28.34;48.26;100602.44;5033930;28;20037;-74
2022/08/16 00:44:24;;;;;;;19.17;12.65;;;;;;;28.27;48.61;100603.00;5032002;28;20048;-74
2022/08/16 00:46:54;;;;;;;17.33;12.40;;;;;;;28.24;48.76;100603.72;5033989;28;20120;-72
2022/08/16 00:49:20;;;;;;;16.50;11.82;;;;;;;28.18;48.21;100598.78;5033890;28;20477;-75
2022/08/16 00:51:48;;;;;;;14.77;12.35;;;;;;;28.20;48.46;100611.09;5034593;28;20017;-69
2022/08/16 00:54:14;;;;;;;17.70;13.50;;;;;;;28.31;48.20;100606.69;5033551;28;20037;-71
2022/08/16 00:56:43;;;;;;;15.63;12.30;;;;;;;28.24;48.11;100602.91;5033553;28;20041;-70
2022/08/16 00:59:11;;;;;;;21.60;11.98;;;;;;;28.18;48.77;100599.59;5013657;28;20136;-69
2022/08/16 01:01:37;;;;;;;14.45;11.45;;;;;;;28.07;48.26;100603.19;5012996;28;20124;-68
2022/08/16 01:04:03;;;;;;;19.10;12.75;;;;;;;28.04;48.89;100612.97;5014226;28;20588;-68
2022/08/16 01:06:29;;;;;;;16.15;12.77;;;;;;;28.05;48.73;100603.50;5013171;28;20090;-70
2022/08/16 01:08:56;;;;;;;26.63;13.30;;;;;;;28.12;48.17;100609.25;5013267;28;20042;-68
2022/08/16 01:11:24;;;;;;;15.05;13.43;;;;;;;28.03;48.56;100602.25;5013348;28;20132;-68
2022/08/16 01:13:52;;;;;;;14.95;13.07;;;;;;;27.98;49.18;100605.25;5013202;28;20501;-68
2022/08/16 01:16:22;;;;;;;18.73;13.38;;;;;;;27.97;48.51;100598.91;5013554;28;20030;-70
2022/08/16 01:18:53;;;;;;;19.50;13.98;;;;;;;27.94;48.82;100607.88;5014307;28;20087;-71
2022/08/16 01:21:50;;;;;;;18.30;14.05;;;;;;;27.86;48.63;100605.22;5013050;28;20522;-69
2022/08/16 01:24:39;;;;;;;17.42;13.80;;;;;;;27.74;49.43;100595.78;5013437;28;20058;-69
2022/08/16 01:27:11;;;;;;;18.48;14.52;;;;;;;27.77;49.09;100595.09;5013251;28;20042;-70
2022/08/16 01:29:46;;;;;;;16.30;13.13;;;;;;;27.59;49.03;100590.97;5012947;28;20042;-71
2022/08/16 01:32:11;;;;;;;19.25;13.95;;;;;;;27.62;48.94;100592.22;5012977;28;20061;-70
2022/08/16 01:34:37;;;;;;;16.55;13.88;;;;;;;27.54;48.70;100598.66;5012965;28;20092;-68
2022/08/16 01:37:06;;;;;;;17.60;14.43;;;;;;;27.58;49.39;100594.06;5012939;28;20033;-69
2022/08/16 01:39:32;;;;;;;18.58;12.60;;;;;;;27.59;49.12;100592.91;5012612;28;20041;-70
2022/08/16 01:41:59;;;;;;;15.90;13.45;;;;;;;27.33;49.37;100592.44;5012433;28;20383;-68
2022/08/16 01:44:24;;;;;;;18.25;13.75;;;;;;;27.38;49.77;100601.28;5012109;28;20444;-69
2022/08/16 01:46:52;;;;;;;17.00;13.45;;;;;;;27.20;50.43;100594.34;5012218;28;20038;-69
2022/08/16 01:49:25;;;;;;;19.90;14.15;;;;;;;27.00;50.74;100603.47;5012656;28;20037;-70
2022/08/16 01:51:57;;;;;;;15.80;13.88;;;;;;;26.88;51.53;100603.44;5014222;28;20112;-74
2022/08/16 01:54:24;;;;;;;18.67;13.77;;;;;;;26.94;51.45;100605.66;5013050;28;20037;-73
2022/08/16 01:56:50;;;;;;;24.40;14.65;;;;;;;26.90;51.15;100612.19;5012229;28;20052;-73
2022/08/16 01:59:16;;;;;;;16.80;14.27;;;;;;;26.98;50.38;100605.78;5012604;28;20494;-73
2022/08/16 02:01:43;;;;;;;18.58;14.82;;;;;;;26.94;50.63;100607.59;5012860;28;20038;-72
2022/08/16 02:04:09;;;;;;;16.17;14.48;;;;;;;26.81;51.84;100606.75;5013085;28;20033;-74
2022/08/16 02:06:34;;;;;;;16.50;13.75;;;;;;;26.81;51.21;100595.72;5012690;28;20041;-73
2022/08/16 02:09:00;;;;;;;18.10;13.70;;;;;;;26.78;50.96;100606.63;5012771;28;20490;-73
2022/08/16 02:11:27;;;;;;;15.70;12.85;;;;;;;26.64;51.45;100595.84;5012814;28;20038;-73
2022/08/16 02:13:54;;;;;;;18.13;13.43;;;;;;;26.55;51.33;100595.13;5012379;28;20534;-73
2022/08/16 02:16:19;;;;;;;16.00;13.80;;;;;;;26.57;50.87;100612.13;5011809;28;20025;-73
2022/08/16 02:18:46;;;;;;;14.23;12.23;;;;;;;26.59;51.07;100607.09;5013034;28;20029;-73
2022/08/16 02:21:12;;;;;;;13.75;12.27;;;;;;;26.57;51.11;100605.81;5014396;28;20548;-73
2022/08/16 02:23:38;;;;;;;14.88;13.20;;;;;;;26.52;51.60;100611.50;5032254;28;20489;-75
2022/08/16 02:26:04;;;;;;;17.80;12.55;;;;;;;26.50;51.66;100606.34;5032088;28;20116;-74
2022/08/16 02:28:30;;;;;;;13.80;11.90;;;;;;;26.51;51.40;100604.41;5032206;28;20033;-72
2022/08/16 02:30:58;;;;;;;14.27;11.48;;;;;;;26.39;51.68;100610.66;5032462;28;20366;-74
2022/08/16 02:33:25;;;;;;;13.25;12.00;;;;;;;26.48;51.07;100611.38;5032180;28;20551;-73
2022/08/16 02:35:51;;;;;;;18.42;12.82;;;;;;;26.36;51.44;100605.03;5031907;28;20049;-74
2022/08/16 02:38:16;;;;;;;13.38;11.95;;;;;;;26.32;52.06;100618.63;5013385;28;20124;-74
2022/08/16 02:40:42;;;;;;;16.05;12.32;;;;;;;26.27;51.46;100612.53;5032109;28;20084;-75
2022/08/16 02:43:07;;;;;;;14.18;12.40;;;;;;;26.36;51.91;100613.28;5032282;28;20029;-73
2022/08/16 02:45:33;;;;;;;17.40;12.18;;;;;;;26.37;51.28;100609.38;5031867;28;20041;-74
2022/08/16 02:47:58;;;;;;;16.88;12.95;;;;;;;26.38;51.42;100611.00;5032063;28;20139;-73
2022/08/16 02:50:24;;;;;;;16.63;11.88;;;;;;;26.26;51.42;100608.19;5022540;28;20069;-73
2022/08/16 02:52:50;;;;;;;24.02;12.18;;;;;;;26.27;50.95;100604.25;5012025;28;20072;-73
2022/08/16 02:55:16;;;;;;;15.52;12.13;;;;;;;26.24;51.51;100608.47;5011603;28;20409;-73
2022/08/16 02:57:41;;;;;;;24.15;12.13;;;;;;;26.10;51.62;100600.47;5018575;28;20045;-73
2022/08/16 03:00:09;;;;;;;15.88;12.07;;;;;;;26.15;51.35;100607.75;5031508;28;20108;-73
2022/08/16 03:02:35;;;;;;;14.48;12.00;;;;;;;26.24;51.27;100608.47;5031628;28;20120;-74
2022/08/16 03:05:03;;;;;;;14.45;11.82;;;;;;;26.14;51.32;100608.91;5031665;28;20036;-76
2022/08/16 03:07:28;;;;;;;13.43;11.85;;;;;;;26.10;51.32;100606.00;5031788;28;20064;-74
2022/08/16 03:09:54;;;;;;;13.48;12.13;;;;;;;26.10;51.42;100607.97;5032091;28;20029;-73
2022/08/16 03:12:20;;;;;;;13.43;12.13;;;;;;;26.06;51.74;100604.25;5031520;28;20033;-75
2022/08/16 03:14:46;;;;;;;22.00;11.98;;;;;;;25.98;51.61;100607.84;5029335;28;20033;-74
2022/08/16 03:17:11;;;;;;;17.90;12.68;;;;;;;25.80;52.65;100603.56;5012957;28;20389;-74
2022/08/16 03:19:36;;;;;;;21.15;12.65;;;;;;;26.00;51.85;100608.31;5011952;28;20113;-74
2022/08/16 03:22:03;;;;;;;17.73;13.02;;;;;;;25.89;52.34;100604.31;5012131;28;20204;-74
2022/08/16 03:24:29;;;;;;;18.40;13.13;;;;;;;25.95;52.08;100605.72;5011727;28;20091;-74
2022/08/16 03:26:57;;;;;;;15.52;12.68;;;;;;;25.97;51.90;100604.25;5011704;28;20042;-74
2022/08/16 03:29:23;;;;;;;17.30;14.48;;;;;;;25.90;52.07;100600.44;5011677;28;20068;-74
2022/08/16 03:31:50;;;;;;;17.02;14.25;;;;;;;25.63;53.03;100601.69;5014959;28;20128;-72
2022/08/16 03:34:15;;;;;;;21.00;14.27;;;;;;;25.82;52.39;100598.53;5015181;28;20030;-72
2022/08/16 03:36:41;;;;;;;18.75;13.52;;;;;;;25.80;51.90;100589.78;5015999;28;20037;-73
2022/08/16 03:39:06;;;;;;;19.73;14.25;;;;;;;25.77;52.37;100598.69;4997700;28;20547;-76
2022/08/16 03:41:32;;;;;;;22.40;13.85;;;;;;;25.79;52.30;100591.72;5015484;28;20034;-74
2022/08/16 03:43:57;;;;;;;19.27;14.50;;;;;;;25.76;52.00;100591.59;5015255;28;20485;-74
2022/08/16 03:46:22;;;;;;;20.58;15.43;;;;;;;25.66;52.65;100597.47;5015172;28;20117;-74
2022/08/16 03:48:48;;;;;;;19.75;15.43;;;;;;;25.72;52.22;100601.66;5015669;28;20030;-75
2022/08/16 03:51:14;;;;;;;19.35;15.65;;;;;;;25.60;52.77;100607.88;5014185;28;20041;-74
2022/08/16 03:53:40;;;;;;;21.33;16.42;;;;;;;25.63;52.59;100604.44;5014893;28;20426;-73
2022/08/16 03:56:07;;;;;;;19.80;15.68;;;;;;;25.34;52.86;100609.06;5015060;28;20564;-74
2022/08/16 03:58:34;;;;;;;22.33;15.75;;;;;;;25.57;52.62;100613.22;5014980;28;20041;-74
2022/08/16 04:00:59;;;;;;;20.00;16.40;;;;;;;25.58;52.43;100612.91;5013453;28;20028;-73
2022/08/16 04:03:25;;;;;;;18.92;15.70;;;;;;;25.51;52.37;100612.63;5014005;28;20030;-75
2022/08/16 04:05:50;;;;;;;19.48;14.90;;;;;;;25.50;52.57;100610.97;5014411;28;20041;-73
2022/08/16 04:08:20;;;;;;;18.02;15.50;;;;;;;25.20;53.00;100617.53;5001520;28;20097;-74
2022/08/16 04:10:47;;;;;;;19.08;16.35;;;;;;;25.07;53.83;100622.09;5010494;28;20026;-74
2022/08/16 04:13:12;;;;;;;20.85;16.45;;;;;;;25.39;52.69;100617.16;4996158;28;20050;-74
2022/08/16 04:15:38;;;;;;;19.85;16.20;;;;;;;25.54;52.20;100625.69;5016746;28;20036;-74
2022/08/16 04:18:04;;;;;;;20.33;16.60;;;;;;;25.42;52.41;100622.81;4996755;28;20401;-76
2022/08/16 04:20:31;;;;;;;21.65;16.10;;;;;;;25.50;52.07;100623.94;5014436;28;20409;-74
2022/08/16 04:22:56;;;;;;;22.05;17.33;;;;;;;25.44;52.31;100626.06;4996444;28;20042;-74
2022/08/16 04:25:22;;;;;;;21.23;15.73;;;;;;;25.26;53.01;100627.22;5014267;28;20028;-74
2022/08/16 04:27:48;;;;;;;24.10;16.45;;;;;;;25.32;52.59;100625.13;5014918;28;20061;-75
2022/08/16 04:30:16;;;;;;;19.95;15.68;;;;;;;25.36;52.72;100624.09;5014201;28;20034;-74
2022/08/16 04:32:42;;;;;;;19.73;16.48;;;;;;;25.21;53.09;100628.22;5014165;28;20038;-69
2022/08/16 04:35:11;;;;;;;20.75;16.20;;;;;;;25.07;53.41;100635.03;5014079;28;20042;-70
2022/08/16 04:37:37;;;;;;;18.35;16.45;;;;;;;25.03;53.40;100631.31;5014148;28;20390;-75
2022/08/16 04:40:04;;;;;;;22.63;16.90;;;;;;;25.35;52.39;100636.28;5014695;28;20237;-75
2022/08/16 04:42:29;;;;;;;19.08;16.90;;;;;;;24.86;53.62;100643.16;5007252;28;20064;-74
2022/08/16 04:44:57;;;;;;;24.13;16.52;;;;;;;25.10;52.92;100637.16;4994339;28;20610;-69
2022/08/16 04:47:27;;;;;;;25.33;16.02;;;;;;;24.98;53.48;100639.75;5010072;28;20038;-68
2022/08/16 04:49:53;;;;;;;18.60;16.38;;;;;;;25.18;52.68;100636.28;5014421;28;20285;-70
2022/08/16 04:52:19;;;;;;;21.83;17.55;;;;;;;25.46;51.69;100636.72;5014400;28;20410;-70
2022/08/16 04:54:44;;;;;;;19.55;16.30;;;;;;;25.36;51.91;100637.06;5014416;28;20040;-70
2022/08/16 04:57:10;;;;;;;20.52;16.23;;;;;;;25.39;51.77;100633.66;5013985;28;20037;-70
2022/08/16 04:59:35;;;;;;;22.92;16.70;;;;;;;25.33;51.75;100643.22;5013739;28;20494;-70
2022/08/16 05:02:02;;;;;;;24.85;16.55;;;;;;;25.44;51.66;100645.31;5013651;28;20038;-71
2022/08/16 05:04:27;;;;;;;21.25;16.33;;;;;;;25.39;51.89;100639.97;5013751;28;20076;-69
2022/08/16 05:06:52;;;;;;;18.35;15.45;;;;;;;25.33;52.10;100633.03;5014255;28;20498;-69
2022/08/16 05:09:18;;;;;;;19.10;15.85;;;;;;;25.41;51.64;100640.50;5013492;28;20096;-70
2022/08/16 05:11:44;;;;;;;18.42;15.10;;;;;;;25.25;51.95;100639.38;5013500;28;20038;-71
2022/08/16 05:14:10;;;;;;;17.75;15.85;;;;;;;25.34;52.12;100640.13;5013455;28;20092;-70
2022/08/16 05:16:36;;;;;;;18.45;15.60;;;;;;;25.34;52.04;100640.13;5013230;28;20486;-69
2022/08/16 05:19:03;;;;;;;23.80;15.38;;;;;;;25.35;51.99;100644.53;5013807;28;20084;-69
2022/08/16 05:21:30;;;;;;;19.52;15.27;;;;;;;25.43;51.87;100646.47;5013170;28;20046;-69
2022/08/16 05:23:56;;;;;;;16.17;14.40;;;;;;;25.61;51.28;100658.22;5013473;28;20045;-71
2022/08/16 05:26:23;;;;;;;18.23;13.68;;;;;;;25.47;51.64;100652.13;5013346;28;20541;-70
2022/08/16 05:28:49;;;;;;;21.27;14.10;;;;;;;25.63;50.97;100661.47;5015514;28;20057;-70
2022/08/16 05:31:15;;;;;;;14.55;12.27;;;;;;;25.70;50.96;100664.50;5028323;28;20426;-69
2022/08/16 05:33:42;;;;;;;14.50;12.88;;;;;;;25.50;51.12;100667.97;5033045;28;20025;-70
2022/08/16 05:36:08;;;;;;;15.63;12.63;;;;;;;25.72;51.06;100676.81;5027337;28;20047;-70
2022/08/16 05:38:33;;;;;;;16.45;12.45;;;;;;;25.81;50.84;100674.00;5028130;28;20390;-74
2022/08/16 05:41:02;;;;;;;16.75;12.18;;;;;;;25.90;50.50;100672.84;5008124;28;20049;-74
2022/08/16 05:43:28;;;;;;;14.95;12.23;;;;;;;26.08;50.40;100671.63;5027894;28;20497;-75
2022/08/16 05:45:54;;;;;;;18.20;12.43;;;;;;;25.94;50.46;100687.56;5002696;28;20026;-73
2022/08/16 05:48:20;;;;;;;20.38;13.27;;;;;;;26.12;50.08;100682.81;5016924;28;20407;-75
2022/08/16 05:50:46;;;;;;;21.38;12.07;;;;;;;26.07;50.84;100686.56;5032724;28;20037;-74
2022/08/16 05:53:12;;;;;;;19.08;12.70;;;;;;;26.48;49.57;100683.03;5031979;28;20045;-72
2022/08/16 05:55:37;;;;;;;14.65;12.05;;;;;;;26.47;49.16;100683.38;5032388;28;20030;-73
2022/08/16 05:58:03;;;;;;;18.60;13.05;;;;;;;26.37;49.14;100681.84;5032877;28;20041;-73
2022/08/16 06:00:28;;;;;;;17.83;12.50;;;;;;;26.52;49.36;100694.22;5032363;28;20520;-73
2022/08/16 06:02:56;;;;;;;18.98;13.05;;;;;;;26.65;49.31;100693.16;5032323;28;20115;-73
2022/08/16 06:05:21;;;;;;;16.75;12.80;;;;;;;27.05;48.30;100687.97;5032289;28;20501;-74
2022/08/16 06:07:46;;;;;;;21.80;12.70;;;;;;;27.35;47.46;100692.25;5032200;28;20092;-74
2022/08/16 06:10:13;;;;;;;18.15;13.05;;;;;;;27.55;47.73;100696.91;5032098;28;20056;-74
2022/08/16 06:12:39;;;;;;;17.45;12.55;;;;;;;27.48;47.51;100689.19;5032538;28;20116;-73
2022/08/16 06:15:11;;;;;;;19.98;13.38;;;;;;;27.63;46.82;100698.78;5023193;28;20499;-74
2022/08/16 06:17:37;;;;;;;21.42;13.50;;;;;;;27.90;47.23;100689.00;5010393;28;20064;-74
2022/08/16 06:20:05;;;;;;;16.25;12.68;;;;;;;27.94;47.18;100693.50;5031532;28;20045;-74
2022/08/16 06:22:30;;;;;;;19.80;15.18;;;;;;;27.83;46.78;100687.63;5031302;28;20050;-73
2022/08/16 06:24:56;;;;;;;16.08;13.57;;;;;;;27.93;46.94;100691.09;5026897;28;20057;-73
2022/08/16 06:27:21;;;;;;;22.08;14.88;;;;;;;27.78;46.66;100687.84;5032211;28;20050;-75
2022/08/16 06:29:47;;;;;;;17.60;14.27;;;;;;;28.16;46.69;100692.28;5032100;28;20045;-77
2022/08/16 06:32:12;;;;;;;22.85;15.38;;;;;;;28.06;46.85;100688.03;5032102;28;20049;-74
2022/08/16 06:34:38;;;;;;;18.05;14.60;;;;;;;28.44;46.43;100688.44;5029056;28;20042;-74
2022/08/16 06:37:03;;;;;;;18.02;15.65;;;;;;;28.43;46.45;100688.78;5012170;28;20529;-74
2022/08/16 06:39:32;;;;;;;19.08;15.45;;;;;;;28.26;46.50;100687.09;5011767;28;20066;-75
2022/08/16 06:41:58;;;;;;;16.15;13.93;;;;;;;28.58;46.05;100688.09;4994459;28;20054;-75
2022/08/16 06:44:24;;;;;;;20.55;16.10;;;;;;;28.50;45.88;100686.25;5012119;28;20177;-73
2022/08/16 06:46:49;;;;;;;18.98;16.05;;;;;;;28.42;46.18;100687.19;5011974;28;20041;-74
2022/08/16 06:49:15;;;;;;;19.63;15.25;;;;;;;27.99;47.77;100695.28;5011935;28;20371;-76
2022/08/16 06:51:41;;;;;;;18.08;15.05;;;;;;;28.32;46.18;100696.78;5012306;28;20544;-74
2022/08/16 06:54:07;;;;;;;23.17;14.45;;;;;;;28.05;46.76;100691.91;5011845;28;20038;-75
2022/08/16 06:56:33;;;;;;;20.50;14.85;;;;;;;27.59;46.94;100690.38;5011789;28;20038;-74
2022/08/16 06:58:59;;;;;;;23.48;15.10;;;;;;;27.55;46.60;100694.97;5012058;28;20375;-74
2022/08/16 07:01:25;;;;;;;22.60;14.00;;;;;;;27.83;45.59;100686.84;5011695;28;20041;-74
2022/08/16 07:03:51;;;;;;;16.40;13.35;;;;;;;27.52;45.90;100694.81;5012580;28;20105;-73
2022/08/16 07:06:18;;;;;;;20.77;14.07;;;;;;;28.00;44.84;100697.69;5014477;28;20069;-73
2022/08/16 07:08:45;;;;;;;17.48;13.05;;;;;;;27.96;45.37;100699.53;5015971;28;20042;-73
2022/08/16 07:11:11;;;;;;;23.80;13.13;;;;;;;28.10;44.85;100697.22;5015880;28;20048;-75
2022/08/16 07:13:36;;;;;;;22.42;14.15;;;;;;;27.83;45.75;100704.19;4997953;28;20042;-74
2022/08/16 07:16:04;;;;;;;31.35;13.98;;;;;;;28.18;45.21;100707.38;5015842;28;20022;-73
2022/08/16 07:18:30;;;;;;;20.25;13.35;;;;;;;28.12;45.36;100716.22;5015564;28;20080;-73
2022/08/16 07:20:57;;;;;;;20.55;13.32;;;;;;;28.09;44.57;100714.16;5015506;28;20631;-75
2022/08/16 07:23:24;;;;;;;19.92;13.50;;;;;;;28.09;44.64;100720.47;5015174;28;20172;-74
2022/08/16 07:25:50;;;;;;;14.82;12.32;;;;;;;28.60;43.71;100722.53;5015572;28;20100;-75
2022/08/16 07:28:17;;;;;;;16.15;11.98;;;;;;;28.55;43.87;100720.03;5015655;28;20057;-72
2022/08/16 07:30:43;;;;;;;19.25;12.55;;;;;;;28.42;44.51;100717.59;5014227;28;20115;-76
2022/08/16 07:33:09;;;;;;;19.10;13.05;;;;;;;28.50;44.08;100722.22;4995761;28;20045;-75
2022/08/16 07:35:35;;;;;;;17.83;12.98;;;;;;;28.62;43.36;100711.94;5006906;28;20394;-76
2022/08/16 07:38:01;;;;;;;20.38;12.65;;;;;;;28.76;43.21;100728.16;5015226;28;20180;-73
2022/08/16 07:40:26;;;;;;;26.10;13.95;;;;;;;27.63;44.67;100729.16;5015206;28;20057;-72
2022/08/16 07:42:52;;;;;;;12.80;11.25;;;;;;;28.06;42.47;100740.53;4998205;28;20037;-74
2022/08/16 07:45:18;;;;;;;19.65;11.30;;;;;;;27.24;43.63;100737.97;5015133;28;20034;-78
2022/08/16 07:47:43;;;;;;;13.52;10.80;;;;;;;28.25;41.69;100739.94;5014976;28;20050;-72
2022/08/16 07:50:11;;;;;;;15.48;10.65;;;;;;;28.15;42.18;100743.16;4997033;28;20489;-73
2022/08/16 07:52:36;;;;;;;20.83;11.77;;;;;;;28.34;41.26;100738.66;5015058;28;20064;-73
2022/08/16 07:55:02;;;;;;;18.40;10.73;;;;;;;27.53;42.82;100741.44;5015562;28;20034;-72
2022/08/16 07:57:27;;;;;;;15.65;10.55;;;;;;;27.89;41.30;100737.94;5015023;28;20049;-75
2022/08/16 07:59:53;;;;;;;14.02;9.93;;;;;;;28.38;40.39;100738.81;5015013;28;20034;-74
2022/08/16 08:02:18;;;;;;;12.00;9.45;;;;;;;28.31;40.63;100736.59;4997353;28;20046;-73
2022/08/16 08:04:44;;;;;;;12.10;10.00;;;;;;;28.13;40.44;100737.16;5015687;28;20034;-72
2022/08/16 08:07:11;;;;;;;13.15;9.52;;;;;;;28.29;39.42;100749.97;5015731;28;20051;-75
2022/08/16 08:09:36;;;;;;;10.80;8.20;;;;;;;28.43;40.14;100750.44;5015891;28;20367;-74
2022/08/16 08:12:02;;;;;;;13.80;8.27;;;;;;;28.91;38.79;100744.03;5015352;28;20034;-75
2022/08/16 08:14:28;;;;;;;21.90;9.07;;;;;;;29.03;38.90;100743.19;5015089;28;20045;-76
2022/08/16 08:16:53;;;;;;;21.42;8.90;;;;;;;28.91;38.60;100748.78;5014702;28;20060;-74
2022/08/16 08:19:19;;;;;;;17.08;7.65;;;;;;;28.89;38.61;100740.81;5014666;28;20391;-76
2022/08/16 08:21:46;;;;;;;12.35;7.65;;;;;;;28.86;38.84;100743.47;5015184;28;20061;-75
2022/08/16 08:24:13;;;;;;;8.75;6.47;;;;;;;29.20;37.97;100749.28;5014622;28;20038;-75
2022/08/16 08:26:40;;;;;;;13.43;7.53;;;;;;;29.00;37.64;100753.00;5014703;28;20037;-73
2022/08/16 08:29:06;;;;;;;10.32;7.57;;;;;;;28.86;38.47;100754.53;5014416;28;20466;-71
2022/08/16 08:31:35;;;;;;;14.18;7.57;;;;;;;29.69;36.82;100757.34;5014317;28;20044;-71
2022/08/16 08:34:01;;;;;;;12.13;5.93;;;;;;;29.28;36.91;100755.81;5015061;28;20037;-73
2022/08/16 08:36:30;;;;;;;7.70;6.03;;;;;;;29.13;35.60;100760.13;5014345;28;20088;-73
2022/08/16 08:38:56;;;;;;;14.98;6.93;;;;;;;29.30;36.53;100767.34;5014449;28;20041;-72
2022/08/16 08:41:24;;;;;;;9.00;6.05;;;;;;;29.07;36.24;100766.25;5014279;28;20038;-76
2022/08/16 08:43:50;;;;;;;7.88;6.43;;;;;;;29.69;35.53;100762.88;5014368;28;20107;-73
2022/08/16 08:46:15;;;;;;;8.18;6.45;;;;;;;29.96;35.33;100765.63;5014087;28;20485;-72
2022/08/16 08:48:40;;;;;;;15.75;7.07;;;;;;;29.62;36.14;100762.69;5014498;28;20026;-71
2022/08/16 08:51:08;;;;;;;12.18;5.93;;;;;;;30.54;33.19;100757.56;5013988;28;20045;-72
2022/08/16 08:53:35;;;;;;;15.38;5.20;;;;;;;30.61;32.66;100760.50;5013968;28;20371;-75
2022/08/16 08:56:05;;;;;;;8.20;5.97;;;;;;;30.64;32.87;100768.13;5023141;28;20048;-72
2022/08/16 08:58:32;;;;;;;10.82;4.47;;;;;;;30.19;33.12;100766.59;5029578;28;20041;-70
2022/08/16 09:00:58;;;;;;;12.60;6.15;;;;;;;30.23;33.22;100766.72;5032686;28;20057;-73
2022/08/16 09:03:23;;;;;;;12.63;5.32;;;;;;;30.84;32.23;100761.47;5032000;28;20044;-71
2022/08/16 09:05:52;;;;;;;11.65;5.18;;;;;;;31.60;31.02;100763.47;5032145;28;20525;-71
2022/08/16 09:08:17;;;;;;;9.63;5.10;;;;;;;30.89;31.52;100763.94;5032154;28;20124;-72
2022/08/16 09:10:42;;;;;;;8.25;4.03;;;;;;;30.93;31.18;100765.66;5031965;28;20041;-71
2022/08/16 09:13:08;;;;;;;9.93;4.20;;;;;;;31.25;30.64;100754.41;5032637;28;20025;-71
2022/08/16 09:15:34;;;;;;;8.10;4.65;;;;;;;31.26;31.04;100764.31;5030669;28;20037;-72
2022/08/16 09:18:03;;;;;;;8.27;4.28;;;;;;;31.80;29.54;100760.25;5032178;28;20095;-72
2022/08/16 09:20:29;;;;;;;5.68;4.00;;;;;;;31.54;29.68;100756.59;5027450;28;20048;-72
2022/08/16 09:22:55;;;;;;;7.32;3.92;;;;;;;31.03;30.45;100761.50;5031836;28;20125;-71
2022/08/16 09:25:22;;;;;;;6.30;3.80;;;;;;;31.21;30.57;100756.31;5027998;28;20105;-70
2022/08/16 09:27:47;;;;;;;8.10;4.38;;;;;;;31.64;30.46;100758.78;5030050;28;20042;-70
2022/08/16 09:30:13;;;;;;;8.27;4.45;;;;;;;32.48;29.07;100759.47;5032824;28;20030;-72
2022/08/16 09:32:38;;;;;;;8.85;4.72;;;;;;;32.70;29.28;100761.41;5032424;28;20049;-70
2022/08/16 09:35:04;;;;;;;8.82;4.88;;;;;;;31.98;29.80;100760.59;5005367;28;20060;-70
2022/08/16 09:37:31;;;;;;;8.05;4.50;;;;;;;32.43;29.49;100765.34;4995003;28;20052;-70
2022/08/16 09:39:58;;;;;;;7.70;4.15;;;;;;;32.23;28.98;100761.03;5006676;28;20072;-71
2022/08/16 09:42:25;;;;;;;10.10;4.30;;;;;;;32.86;28.02;100760.03;5001027;28;20441;-70
2022/08/16 09:44:50;;;;;;;4.18;3.38;;;;;;;33.11;27.36;100760.41;5002864;28;20070;-69
2022/08/16 09:47:16;;;;;;;6.93;3.40;;;;;;;33.34;27.29;100761.06;5001684;28;20070;-69
2022/08/16 09:49:41;;;;;;;10.48;3.78;;;;;;;32.81;27.45;100760.38;5003556;28;20030;-70
2022/08/16 09:52:08;;;;;;;10.93;4.15;;;;;;;33.09;27.00;100762.75;5002491;28;20034;-71
2022/08/16 09:54:33;;;;;;;7.70;3.85;;;;;;;32.79;27.68;100754.38;5002005;28;20026;-71
2022/08/16 09:57:00;;;;;;;10.20;3.38;;;;;;;32.26;27.78;100763.88;5003519;28;20034;-70
2022/08/16 09:59:25;;;;;;;8.13;3.67;;;;;;;32.97;27.32;100757.44;5001932;28;20034;-71
2022/08/16 10:01:52;;;;;;;5.72;3.65;;;;;;;33.71;26.68;100763.88;5002042;28;20053;-72
2022/08/16 10:04:19;;;;;;;6.28;3.20;;;;;;;33.77;26.13;100761.56;5003325;28;20545;-71
2022/08/16 10:06:45;;;;;;;5.75;3.22;;;;;;;33.10;26.12;100760.78;5002213;28;20458;-70
2022/08/16 10:09:13;;;;;;;5.88;3.08;;;;;;;33.16;26.33;100767.63;4985196;28;20038;-72
2022/08/16 10:14:29;;;;;;;4.15;3.72;;;;;;;33.16;26.66;100771.19;5003492;28;20567;-71
2022/08/16 10:16:56;;;;;;;11.77;5.20;;;;;;;33.35;27.84;100759.91;5005237;28;20035;-74
2022/08/16 10:19:22;;;;;;;11.88;4.53;;;;;;;33.60;28.18;100769.38;5000738;28;20041;-71
2022/08/16 10:21:48;;;;;;;12.35;5.97;;;;;;;33.51;28.15;100777.22;5003276;28;20046;-72
2022/08/16 10:24:14;;;;;;;14.43;4.75;;;;;;;32.95;28.68;100772.88;4988628;28;20421;-72
2022/08/16 10:26:40;;;;;;;8.35;4.50;;;;;;;32.61;29.43;100772.78;5006958;28;20048;-70
2022/08/16 10:29:06;;;;;;;8.25;4.75;;;;;;;33.11;29.22;100771.53;5012470;28;20038;-71
2022/08/16 10:31:50;;;;;;;8.10;5.68;;;;;;;32.66;30.55;100775.28;5012433;28;20504;-71
2022/08/16 10:34:15;;;;;;;9.27;6.18;;;;;;;32.78;30.78;100768.69;5015980;28;20025;-73
2022/08/16 10:36:41;;;;;;;15.15;7.25;;;;;;;32.58;30.92;100772.75;5029613;28;20018;-72
2022/08/16 10:39:06;;;;;;;12.68;7.50;;;;;;;32.65;30.88;100773.66;5031523;28;20072;-74
2022/08/16 10:41:32;;;;;;;9.43;6.53;;;;;;;33.19;30.82;100770.47;5031361;28;20449;-74
2022/08/16 10:43:58;;;;;;;8.30;6.70;;;;;;;33.11;29.65;100776.31;5031291;28;20059;-73
2022/08/16 10:46:24;;;;;;;12.93;5.63;;;;;;;32.77;30.58;100776.22;5031565;28;20041;-72
2022/08/16 10:48:49;;;;;;;9.32;6.60;;;;;;;32.85;30.34;100771.53;5013663;28;20033;-72
2022/08/16 10:51:14;;;;;;;10.68;6.32;;;;;;;33.45;29.27;100778.75;5031354;28;20032;-73
2022/08/16 10:53:40;;;;;;;13.88;6.90;;;;;;;32.70;30.53;100784.47;5031367;28;20033;-72
2022/08/16 10:56:11;;;;;;;10.90;6.95;;;;;;;32.78;30.73;100788.16;5031439;28;20050;-74
2022/08/16 10:58:39;;;;;;;10.20;6.45;;;;;;;32.36;31.01;100779.94;5031578;28;20061;-73
2022/08/16 11:01:07;;;;;;;7.38;6.25;;;;;;;32.57;30.36;100793.41;5032338;28;20036;-73
2022/08/16 11:03:33;;;;;;;8.70;6.32;;;;;;;33.08;30.63;100791.78;5031099;28;20433;-72
2022/08/16 11:05:58;;;;;;;12.73;6.13;;;;;;;33.50;29.96;100800.72;5031410;28;20079;-72
2022/08/16 11:08:24;;;;;;;7.63;5.43;;;;;;;34.14;28.87;100799.41;5031309;28;20405;-75
2022/08/16 11:10:50;;;;;;;7.65;5.85;;;;;;;33.04;29.79;100799.31;5032135;28;20026;-71